sensor_id;sensor_type;location;lat;lon;timestamp;temperature;humidity
5576;DHT22;2810;50.134;8.626;2022-11-04T00:00:46;11.20;99.90
5576;DHT22;2810;50.134;8.626;2022-11-04T00:03:11;11.40;99.90
5576;DHT22;2810;50.134;8.626;2022-11-04T00:05:36;11.60;99.90
5576;DHT22;2810;50.134;8.626;2022-11-04T00:08:02;11.20;99.90
5576;DHT22;2810;50.134;8.626;2022-11-04T00:10:46;11.20;99.90
5576;DHT22;2810;50.134;8.626;2022-11-04T00:13:30;11.30;99.90
5576;DHT22;2810;50.134;8.626;2022-11-04T00:15:59;11.30;99.90
5576;DHT22;2810;50.134;8.626;2022-11-04T00:18:43;11.30;99.90
5576;DHT22;2810;50.134;8.626;2022-11-04T00:21:08;11.30;99.90
5576;DHT22;2810;50.134;8.626;2022-11-04T00:23:52;11.30;99.90
5576;DHT22;2810;50.134;8.626;2022-11-04T00:26:36;11.70;99.90
5576;DHT22;2810;50.134;8.626;2022-11-04T00:29:20;11.30;99.90
5576;DHT22;2810;50.134;8.626;2022-11-04T00:31:46;11.30;99.90
5576;DHT22;2810;50.134;8.626;2022-11-04T00:34:30;11.30;99.90
5576;DHT22;2810;50.134;8.626;2022-11-04T00:36:55;11.30;99.90
5576;DHT22;2810;50.134;8.626;2022-11-04T00:39:21;11.30;99.90
5576;DHT22;2810;50.134;8.626;2022-11-04T00:41:46;11.30;99.90
5576;DHT22;2810;50.134;8.626;2022-11-04T00:44:11;11.30;99.90
5576;DHT22;2810;50.134;8.626;2022-11-04T00:46:37;11.30;99.90
5576;DHT22;2810;50.134;8.626;2022-11-04T00:49:02;11.30;99.90
5576;DHT22;2810;50.134;8.626;2022-11-04T00:51:28;11.30;99.90
5576;DHT22;2810;50.134;8.626;2022-11-04T00:53:53;11.30;99.90
5576;DHT22;2810;50.134;8.626;2022-11-04T00:56:19;11.30;99.90
5576;DHT22;2810;50.134;8.626;2022-11-04T00:58:44;11.20;99.90
5576;DHT22;2810;50.134;8.626;2022-11-04T01:01:10;11.30;99.90
5576;DHT22;2810;50.134;8.626;2022-11-04T01:03:36;11.30;99.90
5576;DHT22;2810;50.134;8.626;2022-11-04T01:06:02;11.20;99.90
5576;DHT22;2810;50.134;8.626;2022-11-04T01:08:27;11.20;99.90
5576;DHT22;2810;50.134;8.626;2022-11-04T01:10:53;11.20;99.90
5576;DHT22;2810;50.134;8.626;2022-11-04T01:13:18;11.20;99.90
5576;DHT22;2810;50.134;8.626;2022-11-04T01:15:44;11.20;99.90
5576;DHT22;2810;50.134;8.626;2022-11-04T01:18:09;11.20;99.90
5576;DHT22;2810;50.134;8.626;2022-11-04T01:20:34;11.20;99.90
5576;DHT22;2810;50.134;8.626;2022-11-04T01:23:00;11.20;99.90
5576;DHT22;2810;50.134;8.626;2022-11-04T01:25:25;11.20;99.90
5576;DHT22;2810;50.134;8.626;2022-11-04T01:27:51;11.20;99.90
5576;DHT22;2810;50.134;8.626;2022-11-04T01:30:16;11.20;99.90
5576;DHT22;2810;50.134;8.626;2022-11-04T01:32:41;11.20;99.90
5576;DHT22;2810;50.134;8.626;2022-11-04T01:35:07;11.20;99.90
5576;DHT22;2810;50.134;8.626;2022-11-04T01:37:33;11.10;99.90
5576;DHT22;2810;50.134;8.626;2022-11-04T01:39:59;11.20;99.90
5576;DHT22;2810;50.134;8.626;2022-11-04T01:42:24;11.10;99.90
5576;DHT22;2810;50.134;8.626;2022-11-04T01:44:56;11.10;99.90
5576;DHT22;2810;50.134;8.626;2022-11-04T01:47:26;11.10;99.90
5576;DHT22;2810;50.134;8.626;2022-11-04T01:49:54;11.10;99.90
5576;DHT22;2810;50.134;8.626;2022-11-04T01:52:21;11.10;99.90
5576;DHT22;2810;50.134;8.626;2022-11-04T01:54:49;11.10;99.90
5576;DHT22;2810;50.134;8.626;2022-11-04T01:57:19;11.10;99.90
5576;DHT22;2810;50.134;8.626;2022-11-04T01:59:47;11.10;99.90
5576;DHT22;2810;50.134;8.626;2022-11-04T02:02:13;11.10;99.90
5576;DHT22;2810;50.134;8.626;2022-11-04T02:04:38;11.10;99.90
5576;DHT22;2810;50.134;8.626;2022-11-04T02:07:05;11.10;99.90
5576;DHT22;2810;50.134;8.626;2022-11-04T02:09:31;11.10;99.90
5576;DHT22;2810;50.134;8.626;2022-11-04T02:11:57;11.00;99.90
5576;DHT22;2810;50.134;8.626;2022-11-04T02:14:41;11.00;99.90
5576;DHT22;2810;50.134;8.626;2022-11-04T02:27:25;10.80;99.90
5576;DHT22;2810;50.134;8.626;2022-11-04T02:30:13;10.70;99.90
5576;DHT22;2810;50.134;8.626;2022-11-04T02:38:42;10.70;99.90
5576;DHT22;2810;50.134;8.626;2022-11-04T02:41:52;10.60;99.90
5576;DHT22;2810;50.134;8.626;2022-11-04T02:43:47;10.60;99.90
5576;DHT22;2810;50.134;8.626;2022-11-04T02:46:26;10.60;99.90
5576;DHT22;2810;50.134;8.626;2022-11-04T02:51:46;10.50;99.90
5576;DHT22;2810;50.134;8.626;2022-11-04T02:54:10;10.50;99.90
5576;DHT22;2810;50.134;8.626;2022-11-04T02:56:38;10.60;99.90
5576;DHT22;2810;50.134;8.626;2022-11-04T02:59:06;10.50;99.90
5576;DHT22;2810;50.134;8.626;2022-11-04T03:01:35;10.90;99.90
5576;DHT22;2810;50.134;8.626;2022-11-04T03:06:56;10.50;99.90
5576;DHT22;2810;50.134;8.626;2022-11-04T03:09:22;10.50;99.90
5576;DHT22;2810;50.134;8.626;2022-11-04T03:11:49;10.50;99.90
5576;DHT22;2810;50.134;8.626;2022-11-04T03:14:24;10.40;99.90
5576;DHT22;2810;50.134;8.626;2022-11-04T03:16:52;10.40;99.90
5576;DHT22;2810;50.134;8.626;2022-11-04T03:19:21;10.40;99.90
5576;DHT22;2810;50.134;8.626;2022-11-04T03:21:57;10.40;99.90
5576;DHT22;2810;50.134;8.626;2022-11-04T03:24:23;10.40;99.90
5576;DHT22;2810;50.134;8.626;2022-11-04T03:26:58;10.30;99.90
5576;DHT22;2810;50.134;8.626;2022-11-04T03:29:26;10.30;99.90
5576;DHT22;2810;50.134;8.626;2022-11-04T03:34:27;10.30;99.90
5576;DHT22;2810;50.134;8.626;2022-11-04T03:36:53;10.20;99.90
5576;DHT22;2810;50.134;8.626;2022-11-04T03:39:18;10.20;99.90
5576;DHT22;2810;50.134;8.626;2022-11-04T03:41:48;10.30;99.90
5576;DHT22;2810;50.134;8.626;2022-11-04T03:44:14;10.10;99.90
5576;DHT22;2810;50.134;8.626;2022-11-04T03:46:40;10.10;99.90
5576;DHT22;2810;50.134;8.626;2022-11-04T03:49:06;10.10;99.90
5576;DHT22;2810;50.134;8.626;2022-11-04T03:51:32;10.00;99.90
5576;DHT22;2810;50.134;8.626;2022-11-04T03:53:57;10.20;99.90
5576;DHT22;2810;50.134;8.626;2022-11-04T04:04:07;9.90;99.90
5576;DHT22;2810;50.134;8.626;2022-11-04T04:06:36;9.90;99.90
5576;DHT22;2810;50.134;8.626;2022-11-04T04:09:08;9.90;99.90
5576;DHT22;2810;50.134;8.626;2022-11-04T04:14:05;9.80;99.90
5576;DHT22;2810;50.134;8.626;2022-11-04T04:16:33;9.80;99.90
5576;DHT22;2810;50.134;8.626;2022-11-04T04:19:06;9.80;99.90
5576;DHT22;2810;50.134;8.626;2022-11-04T04:21:38;9.80;99.90
5576;DHT22;2810;50.134;8.626;2022-11-04T04:24:05;9.80;99.90
5576;DHT22;2810;50.134;8.626;2022-11-04T04:26:51;9.80;99.90
5576;DHT22;2810;50.134;8.626;2022-11-04T04:29:37;9.70;99.90
5576;DHT22;2810;50.134;8.626;2022-11-04T04:32:03;9.80;99.90
5576;DHT22;2810;50.134;8.626;2022-11-04T04:34:30;9.70;99.90
5576;DHT22;2810;50.134;8.626;2022-11-04T04:37:04;9.70;99.90
5576;DHT22;2810;50.134;8.626;2022-11-04T04:39:52;9.60;99.90
5576;DHT22;2810;50.134;8.626;2022-11-04T04:42:37;9.60;99.90
5576;DHT22;2810;50.134;8.626;2022-11-04T04:45:26;9.50;99.90
5576;DHT22;2810;50.134;8.626;2022-11-04T04:47:54;9.50;99.90
5576;DHT22;2810;50.134;8.626;2022-11-04T04:50:20;9.50;99.90
5576;DHT22;2810;50.134;8.626;2022-11-04T04:52:50;9.40;99.90
5576;DHT22;2810;50.134;8.626;2022-11-04T04:55:16;9.40;99.90
5576;DHT22;2810;50.134;8.626;2022-11-04T04:57:42;9.70;99.90
5576;DHT22;2810;50.134;8.626;2022-11-04T05:00:08;9.40;99.90
5576;DHT22;2810;50.134;8.626;2022-11-04T05:02:35;9.40;99.90
5576;DHT22;2810;50.134;8.626;2022-11-04T05:05:01;9.30;99.90
5576;DHT22;2810;50.134;8.626;2022-11-04T05:07:27;9.30;99.90
5576;DHT22;2810;50.134;8.626;2022-11-04T05:09:52;9.30;99.90
5576;DHT22;2810;50.134;8.626;2022-11-04T05:12:18;9.20;99.90
5576;DHT22;2810;50.134;8.626;2022-11-04T05:14:43;9.30;99.90
5576;DHT22;2810;50.134;8.626;2022-11-04T05:17:08;9.20;99.90
5576;DHT22;2810;50.134;8.626;2022-11-04T05:19:34;9.20;99.90
5576;DHT22;2810;50.134;8.626;2022-11-04T05:21:59;9.20;99.90
5576;DHT22;2810;50.134;8.626;2022-11-04T05:24:25;9.20;99.90
5576;DHT22;2810;50.134;8.626;2022-11-04T05:26:50;9.10;99.90
5576;DHT22;2810;50.134;8.626;2022-11-04T05:29:16;9.10;99.90
5576;DHT22;2810;50.134;8.626;2022-11-04T05:31:41;9.10;99.90
5576;DHT22;2810;50.134;8.626;2022-11-04T05:34:09;9.10;99.90
5576;DHT22;2810;50.134;8.626;2022-11-04T05:36:34;9.10;99.90
5576;DHT22;2810;50.134;8.626;2022-11-04T05:39:01;9.20;99.90
5576;DHT22;2810;50.134;8.626;2022-11-04T05:41:27;9.40;99.90
5576;DHT22;2810;50.134;8.626;2022-11-04T05:43:53;9.20;99.90
5576;DHT22;2810;50.134;8.626;2022-11-04T05:46:19;9.20;99.90
5576;DHT22;2810;50.134;8.626;2022-11-04T05:48:45;9.40;99.90
5576;DHT22;2810;50.134;8.626;2022-11-04T05:51:14;9.20;99.90
5576;DHT22;2810;50.134;8.626;2022-11-04T05:53:40;9.20;99.90
5576;DHT22;2810;50.134;8.626;2022-11-04T05:56:05;9.20;99.90
5576;DHT22;2810;50.134;8.626;2022-11-04T05:58:31;9.30;99.90
5576;DHT22;2810;50.134;8.626;2022-11-04T06:03:40;9.30;99.90
5576;DHT22;2810;50.134;8.626;2022-11-04T06:06:05;9.30;99.90
5576;DHT22;2810;50.134;8.626;2022-11-04T06:08:31;9.30;99.90
5576;DHT22;2810;50.134;8.626;2022-11-04T06:10:56;9.30;99.90
5576;DHT22;2810;50.134;8.626;2022-11-04T06:13:22;9.40;99.90
5576;DHT22;2810;50.134;8.626;2022-11-04T06:15:47;9.60;99.90
5576;DHT22;2810;50.134;8.626;2022-11-04T06:18:13;9.40;99.90
5576;DHT22;2810;50.134;8.626;2022-11-04T06:20:38;9.60;99.90
5576;DHT22;2810;50.134;8.626;2022-11-04T06:23:04;9.40;99.90
5576;DHT22;2810;50.134;8.626;2022-11-04T06:25:29;9.40;99.90
5576;DHT22;2810;50.134;8.626;2022-11-04T06:27:55;9.40;99.90
5576;DHT22;2810;50.134;8.626;2022-11-04T06:30:20;9.40;99.90
5576;DHT22;2810;50.134;8.626;2022-11-04T06:32:46;9.40;99.90
5576;DHT22;2810;50.134;8.626;2022-11-04T06:35:11;9.50;99.90
5576;DHT22;2810;50.134;8.626;2022-11-04T06:37:37;9.50;99.90
5576;DHT22;2810;50.134;8.626;2022-11-04T06:40:03;9.50;99.90
5576;DHT22;2810;50.134;8.626;2022-11-04T06:42:28;9.50;99.90
5576;DHT22;2810;50.134;8.626;2022-11-04T06:44:54;9.50;99.90
5576;DHT22;2810;50.134;8.626;2022-11-04T06:47:19;9.40;99.90
5576;DHT22;2810;50.134;8.626;2022-11-04T06:49:45;9.50;99.90
5576;DHT22;2810;50.134;8.626;2022-11-04T06:52:10;9.80;99.90
5576;DHT22;2810;50.134;8.626;2022-11-04T06:54:36;9.40;99.90
5576;DHT22;2810;50.134;8.626;2022-11-04T06:57:01;9.50;99.90
5576;DHT22;2810;50.134;8.626;2022-11-04T06:59:27;9.50;99.90
5576;DHT22;2810;50.134;8.626;2022-11-04T07:01:53;9.50;99.90
5576;DHT22;2810;50.134;8.626;2022-11-04T07:04:18;9.50;99.90
5576;DHT22;2810;50.134;8.626;2022-11-04T07:06:44;9.50;99.90
5576;DHT22;2810;50.134;8.626;2022-11-04T07:09:10;9.60;99.90
5576;DHT22;2810;50.134;8.626;2022-11-04T07:11:35;9.60;99.90
5576;DHT22;2810;50.134;8.626;2022-11-04T07:14:01;10.10;99.90
5576;DHT22;2810;50.134;8.626;2022-11-04T07:16:27;9.70;99.90
5576;DHT22;2810;50.134;8.626;2022-11-04T07:18:53;10.00;99.90
5576;DHT22;2810;50.134;8.626;2022-11-04T07:21:18;9.70;99.90
5576;DHT22;2810;50.134;8.626;2022-11-04T07:23:43;9.80;99.90
5576;DHT22;2810;50.134;8.626;2022-11-04T07:26:10;9.80;99.90
5576;DHT22;2810;50.134;8.626;2022-11-04T07:28:35;9.80;99.90
5576;DHT22;2810;50.134;8.626;2022-11-04T07:31:02;9.90;99.90
5576;DHT22;2810;50.134;8.626;2022-11-04T07:33:27;10.30;99.90
5576;DHT22;2810;50.134;8.626;2022-11-04T07:35:53;9.90;99.90
5576;DHT22;2810;50.134;8.626;2022-11-04T07:38:19;10.00;99.90
5576;DHT22;2810;50.134;8.626;2022-11-04T07:40:45;10.40;99.90
5576;DHT22;2810;50.134;8.626;2022-11-04T07:43:10;10.30;99.90
5576;DHT22;2810;50.134;8.626;2022-11-04T07:45:36;10.10;99.90
5576;DHT22;2810;50.134;8.626;2022-11-04T07:48:01;10.20;99.90
5576;DHT22;2810;50.134;8.626;2022-11-04T07:50:27;10.20;99.90
5576;DHT22;2810;50.134;8.626;2022-11-04T07:52:52;10.20;99.90
5576;DHT22;2810;50.134;8.626;2022-11-04T07:55:18;10.30;99.90
5576;DHT22;2810;50.134;8.626;2022-11-04T07:57:44;10.30;99.90
5576;DHT22;2810;50.134;8.626;2022-11-04T08:00:09;10.30;99.90
5576;DHT22;2810;50.134;8.626;2022-11-04T08:02:35;10.30;99.90
5576;DHT22;2810;50.134;8.626;2022-11-04T08:05:01;10.40;99.90
5576;DHT22;2810;50.134;8.626;2022-11-04T08:07:26;10.40;99.90
5576;DHT22;2810;50.134;8.626;2022-11-04T08:09:54;10.40;99.90
5576;DHT22;2810;50.134;8.626;2022-11-04T08:12:19;10.40;99.90
5576;DHT22;2810;50.134;8.626;2022-11-04T08:14:47;10.40;99.90
5576;DHT22;2810;50.134;8.626;2022-11-04T08:17:13;10.40;99.90
5576;DHT22;2810;50.134;8.626;2022-11-04T08:19:38;10.40;99.90
5576;DHT22;2810;50.134;8.626;2022-11-04T08:22:04;10.50;99.90
5576;DHT22;2810;50.134;8.626;2022-11-04T08:24:29;10.50;99.90
5576;DHT22;2810;50.134;8.626;2022-11-04T08:26:55;10.50;99.90
5576;DHT22;2810;50.134;8.626;2022-11-04T08:29:20;10.50;99.90
5576;DHT22;2810;50.134;8.626;2022-11-04T08:31:46;10.50;99.90
5576;DHT22;2810;50.134;8.626;2022-11-04T08:34:12;10.50;99.90
5576;DHT22;2810;50.134;8.626;2022-11-04T08:36:41;10.50;99.90
5576;DHT22;2810;50.134;8.626;2022-11-04T08:39:07;10.50;99.90
5576;DHT22;2810;50.134;8.626;2022-11-04T08:41:33;10.60;99.90
5576;DHT22;2810;50.134;8.626;2022-11-04T08:43:59;10.90;99.90
5576;DHT22;2810;50.134;8.626;2022-11-04T08:46:29;11.00;99.90
5576;DHT22;2810;50.134;8.626;2022-11-04T08:48:56;10.60;99.90
5576;DHT22;2810;50.134;8.626;2022-11-04T08:51:23;10.70;99.90
5576;DHT22;2810;50.134;8.626;2022-11-04T08:53:48;11.00;99.90
5576;DHT22;2810;50.134;8.626;2022-11-04T08:56:15;10.70;99.90
5576;DHT22;2810;50.134;8.626;2022-11-04T08:58:41;11.00;99.90
5576;DHT22;2810;50.134;8.626;2022-11-04T09:01:07;10.90;99.90
5576;DHT22;2810;50.134;8.626;2022-11-04T09:03:35;10.70;99.90
5576;DHT22;2810;50.134;8.626;2022-11-04T09:06:03;10.70;99.90
5576;DHT22;2810;50.134;8.626;2022-11-04T09:08:28;10.70;99.90
5576;DHT22;2810;50.134;8.626;2022-11-04T09:10:54;10.70;99.90
5576;DHT22;2810;50.134;8.626;2022-11-04T09:13:19;10.70;99.90
5576;DHT22;2810;50.134;8.626;2022-11-04T09:15:44;10.60;99.90
5576;DHT22;2810;50.134;8.626;2022-11-04T09:18:10;10.60;99.90
5576;DHT22;2810;50.134;8.626;2022-11-04T09:20:35;10.70;99.90
5576;DHT22;2810;50.134;8.626;2022-11-04T09:23:05;10.70;99.90
5576;DHT22;2810;50.134;8.626;2022-11-04T09:25:31;10.70;99.90
5576;DHT22;2810;50.134;8.626;2022-11-04T09:27:57;10.80;99.90
5576;DHT22;2810;50.134;8.626;2022-11-04T09:30:23;10.90;99.90
5576;DHT22;2810;50.134;8.626;2022-11-04T09:32:48;11.00;99.90
5576;DHT22;2810;50.134;8.626;2022-11-04T09:35:14;11.10;99.90
5576;DHT22;2810;50.134;8.626;2022-11-04T09:37:41;11.20;99.90
5576;DHT22;2810;50.134;8.626;2022-11-04T09:40:09;11.40;99.90
5576;DHT22;2810;50.134;8.626;2022-11-04T09:42:49;11.70;99.90
5576;DHT22;2810;50.134;8.626;2022-11-04T09:45:22;12.00;99.90
5576;DHT22;2810;50.134;8.626;2022-11-04T09:47:49;12.30;99.90
5576;DHT22;2810;50.134;8.626;2022-11-04T09:50:21;12.50;99.90
5576;DHT22;2810;50.134;8.626;2022-11-04T09:52:50;12.50;99.90
5576;DHT22;2810;50.134;8.626;2022-11-04T09:55:36;12.50;99.90
5576;DHT22;2810;50.134;8.626;2022-11-04T09:58:03;12.50;99.90
5576;DHT22;2810;50.134;8.626;2022-11-04T10:00:29;12.40;99.90
5576;DHT22;2810;50.134;8.626;2022-11-04T10:05:29;12.40;99.90
5576;DHT22;2810;50.134;8.626;2022-11-04T10:15:52;12.50;99.90
5576;DHT22;2810;50.134;8.626;2022-11-04T10:21:14;12.60;99.90
5576;DHT22;2810;50.134;8.626;2022-11-04T10:24:02;12.80;99.90
5576;DHT22;2810;50.134;8.626;2022-11-04T10:26:33;13.00;99.90
5576;DHT22;2810;50.134;8.626;2022-11-04T10:29:02;13.30;99.90
5576;DHT22;2810;50.134;8.626;2022-11-04T10:31:28;13.50;99.90
5576;DHT22;2810;50.134;8.626;2022-11-04T10:33:58;13.80;99.90
5576;DHT22;2810;50.134;8.626;2022-11-04T10:36:25;13.70;99.90
5576;DHT22;2810;50.134;8.626;2022-11-04T10:38:51;14.10;99.90
5576;DHT22;2810;50.134;8.626;2022-11-04T10:43:44;14.10;99.90
5576;DHT22;2810;50.134;8.626;2022-11-04T10:48:56;13.80;99.90
5576;DHT22;2810;50.134;8.626;2022-11-04T10:51:24;14.40;99.90
5576;DHT22;2810;50.134;8.626;2022-11-04T10:53:54;14.70;99.90
5576;DHT22;2810;50.134;8.626;2022-11-04T10:56:34;14.50;99.90
5576;DHT22;2810;50.134;8.626;2022-11-04T10:59:21;14.30;99.90
5576;DHT22;2810;50.134;8.626;2022-11-04T11:01:52;14.10;99.90
5576;DHT22;2810;50.134;8.626;2022-11-04T11:04:28;13.90;99.90
5576;DHT22;2810;50.134;8.626;2022-11-04T11:06:55;13.80;99.90
5576;DHT22;2810;50.134;8.626;2022-11-04T11:09:28;13.70;99.90
5576;DHT22;2810;50.134;8.626;2022-11-04T11:11:55;13.40;99.90
5576;DHT22;2810;50.134;8.626;2022-11-04T11:14:30;13.50;99.90
5576;DHT22;2810;50.134;8.626;2022-11-04T11:16:56;13.40;99.90
5576;DHT22;2810;50.134;8.626;2022-11-04T11:19:23;13.40;99.90
5576;DHT22;2810;50.134;8.626;2022-11-04T11:24:21;13.40;99.90
5576;DHT22;2810;50.134;8.626;2022-11-04T11:26:48;13.30;99.90
5576;DHT22;2810;50.134;8.626;2022-11-04T11:29:17;13.30;99.90
5576;DHT22;2810;50.134;8.626;2022-11-04T11:31:43;13.50;99.90
5576;DHT22;2810;50.134;8.626;2022-11-04T11:34:16;13.60;99.90
5576;DHT22;2810;50.134;8.626;2022-11-04T11:36:43;13.80;99.90
5576;DHT22;2810;50.134;8.626;2022-11-04T11:42:14;14.10;99.90
5576;DHT22;2810;50.134;8.626;2022-11-04T11:44:39;14.20;99.90
5576;DHT22;2810;50.134;8.626;2022-11-04T11:52:31;14.40;99.90
5576;DHT22;2810;50.134;8.626;2022-11-04T11:55:10;14.30;99.90
5576;DHT22;2810;50.134;8.626;2022-11-04T12:00:04;14.00;99.90
5576;DHT22;2810;50.134;8.626;2022-11-04T12:05:12;13.70;99.90
5576;DHT22;2810;50.134;8.626;2022-11-04T12:15:24;13.70;99.90
5576;DHT22;2810;50.134;8.626;2022-11-04T12:26:08;13.50;99.90
5576;DHT22;2810;50.134;8.626;2022-11-04T12:31:23;13.50;99.90
5576;DHT22;2810;50.134;8.626;2022-11-04T12:34:01;13.70;99.90
5576;DHT22;2810;50.134;8.626;2022-11-04T12:41:41;13.70;99.90
5576;DHT22;2810;50.134;8.626;2022-11-04T12:47:04;13.60;99.90
5576;DHT22;2810;50.134;8.626;2022-11-04T12:49:57;13.70;99.90
5576;DHT22;2810;50.134;8.626;2022-11-04T12:57:25;13.90;99.90
5576;DHT22;2810;50.134;8.626;2022-11-04T13:02:31;13.80;99.90
5576;DHT22;2810;50.134;8.626;2022-11-04T13:05:02;13.90;99.90
5576;DHT22;2810;50.134;8.626;2022-11-04T13:07:30;14.00;99.90
5576;DHT22;2810;50.134;8.626;2022-11-04T13:10:04;14.00;99.90
5576;DHT22;2810;50.134;8.626;2022-11-04T13:12:31;14.10;99.90
5576;DHT22;2810;50.134;8.626;2022-11-04T13:15:00;14.10;99.90
5576;DHT22;2810;50.134;8.626;2022-11-04T13:17:28;14.20;99.90
5576;DHT22;2810;50.134;8.626;2022-11-04T13:19:56;13.90;99.90
5576;DHT22;2810;50.134;8.626;2022-11-04T13:24:52;13.90;99.90
5576;DHT22;2810;50.134;8.626;2022-11-04T13:27:26;14.00;99.90
5576;DHT22;2810;50.134;8.626;2022-11-04T13:29:58;14.10;99.90
5576;DHT22;2810;50.134;8.626;2022-11-04T13:32:30;14.40;99.90
5576;DHT22;2810;50.134;8.626;2022-11-04T13:37:25;14.00;99.90
5576;DHT22;2810;50.134;8.626;2022-11-04T13:42:22;13.90;99.90
5576;DHT22;2810;50.134;8.626;2022-11-04T13:44:52;13.70;99.90
5576;DHT22;2810;50.134;8.626;2022-11-04T13:47:43;13.60;99.90
5576;DHT22;2810;50.134;8.626;2022-11-04T13:50:12;13.50;99.90
5576;DHT22;2810;50.134;8.626;2022-11-04T13:52:51;13.40;99.90
5576;DHT22;2810;50.134;8.626;2022-11-04T13:55:17;13.40;99.90
5576;DHT22;2810;50.134;8.626;2022-11-04T14:02:43;13.30;99.90
5576;DHT22;2810;50.134;8.626;2022-11-04T14:05:43;13.20;99.90
5576;DHT22;2810;50.134;8.626;2022-11-04T14:08:08;13.20;99.90
5576;DHT22;2810;50.134;8.626;2022-11-04T14:16:05;13.10;99.90
5576;DHT22;2810;50.134;8.626;2022-11-04T14:18:43;13.10;99.90
5576;DHT22;2810;50.134;8.626;2022-11-04T14:21:13;13.10;99.90
5576;DHT22;2810;50.134;8.626;2022-11-04T14:23:40;13.00;99.90
5576;DHT22;2810;50.134;8.626;2022-11-04T14:26:06;13.50;99.90
5576;DHT22;2810;50.134;8.626;2022-11-04T14:28:33;12.90;99.90
5576;DHT22;2810;50.134;8.626;2022-11-04T14:33:30;12.80;99.90
5576;DHT22;2810;50.134;8.626;2022-11-04T14:35:56;13.00;99.90
5576;DHT22;2810;50.134;8.626;2022-11-04T14:38:37;12.80;99.90
5576;DHT22;2810;50.134;8.626;2022-11-04T14:43:38;12.70;99.90
5576;DHT22;2810;50.134;8.626;2022-11-04T14:46:04;12.70;99.90
5576;DHT22;2810;50.134;8.626;2022-11-04T14:48:30;12.70;99.90
5576;DHT22;2810;50.134;8.626;2022-11-04T14:50:56;12.70;99.90
5576;DHT22;2810;50.134;8.626;2022-11-04T14:53:31;12.90;99.90
5576;DHT22;2810;50.134;8.626;2022-11-04T14:58:29;12.70;99.90
5576;DHT22;2810;50.134;8.626;2022-11-04T15:00:54;12.60;99.90
5576;DHT22;2810;50.134;8.626;2022-11-04T15:03:24;12.60;99.90
5576;DHT22;2810;50.134;8.626;2022-11-04T15:05:50;12.60;99.90
5576;DHT22;2810;50.134;8.626;2022-11-04T15:08:26;12.60;99.90
5576;DHT22;2810;50.134;8.626;2022-11-04T15:10:56;12.50;99.90
5576;DHT22;2810;50.134;8.626;2022-11-04T15:13:22;12.50;99.90
5576;DHT22;2810;50.134;8.626;2022-11-04T15:15:47;12.50;99.90
5576;DHT22;2810;50.134;8.626;2022-11-04T15:18:16;12.60;99.90
5576;DHT22;2810;50.134;8.626;2022-11-04T15:20:49;12.40;99.90
5576;DHT22;2810;50.134;8.626;2022-11-04T15:23:21;12.30;99.90
5576;DHT22;2810;50.134;8.626;2022-11-04T15:25:48;12.30;99.90
5576;DHT22;2810;50.134;8.626;2022-11-04T15:28:22;12.20;99.90
5576;DHT22;2810;50.134;8.626;2022-11-04T15:31:02;12.20;99.90
5576;DHT22;2810;50.134;8.626;2022-11-04T15:33:28;12.10;99.90
5576;DHT22;2810;50.134;8.626;2022-11-04T15:35:55;12.00;99.90
5576;DHT22;2810;50.134;8.626;2022-11-04T15:38:22;12.00;99.90
5576;DHT22;2810;50.134;8.626;2022-11-04T15:40:48;12.00;99.90
5576;DHT22;2810;50.134;8.626;2022-11-04T15:43:14;12.00;99.90
5576;DHT22;2810;50.134;8.626;2022-11-04T15:45:48;11.90;99.90
5576;DHT22;2810;50.134;8.626;2022-11-04T15:48:23;11.80;99.90
5576;DHT22;2810;50.134;8.626;2022-11-04T15:51:02;11.80;99.90
5576;DHT22;2810;50.134;8.626;2022-11-04T15:53:29;11.80;99.90
5576;DHT22;2810;50.134;8.626;2022-11-04T15:55:55;11.80;99.90
5576;DHT22;2810;50.134;8.626;2022-11-04T15:58:21;11.80;99.90
5576;DHT22;2810;50.134;8.626;2022-11-04T16:00:52;11.80;99.90
5576;DHT22;2810;50.134;8.626;2022-11-04T16:03:18;11.80;99.90
5576;DHT22;2810;50.134;8.626;2022-11-04T16:05:58;11.40;99.90
5576;DHT22;2810;50.134;8.626;2022-11-04T16:08:26;11.70;99.90
5576;DHT22;2810;50.134;8.626;2022-11-04T16:11:06;11.60;99.90
5576;DHT22;2810;50.134;8.626;2022-11-04T16:13:32;11.60;99.90
5576;DHT22;2810;50.134;8.626;2022-11-04T16:20:48;11.70;99.90
5576;DHT22;2810;50.134;8.626;2022-11-04T16:23:18;11.60;99.90
5576;DHT22;2810;50.134;8.626;2022-11-04T16:25:45;11.60;99.90
5576;DHT22;2810;50.134;8.626;2022-11-04T16:28:20;11.90;99.90
5576;DHT22;2810;50.134;8.626;2022-11-04T16:30:56;11.60;99.90
5576;DHT22;2810;50.134;8.626;2022-11-04T16:33:21;11.60;99.90
5576;DHT22;2810;50.134;8.626;2022-11-04T16:35:47;11.90;99.90
5576;DHT22;2810;50.134;8.626;2022-11-04T16:38:12;11.60;99.90
5576;DHT22;2810;50.134;8.626;2022-11-04T16:40:38;11.50;99.90
5576;DHT22;2810;50.134;8.626;2022-11-04T16:43:04;11.50;99.90
5576;DHT22;2810;50.134;8.626;2022-11-04T16:45:32;11.50;99.90
5576;DHT22;2810;50.134;8.626;2022-11-04T16:47:58;11.60;99.90
5576;DHT22;2810;50.134;8.626;2022-11-04T16:50:24;11.60;99.90
5576;DHT22;2810;50.134;8.626;2022-11-04T16:52:50;12.10;99.90
5576;DHT22;2810;50.134;8.626;2022-11-04T16:55:16;11.60;99.90
5576;DHT22;2810;50.134;8.626;2022-11-04T16:57:42;11.60;99.90
5576;DHT22;2810;50.134;8.626;2022-11-04T17:00:19;11.60;99.90
5576;DHT22;2810;50.134;8.626;2022-11-04T17:02:45;11.60;99.90
5576;DHT22;2810;50.134;8.626;2022-11-04T17:05:10;11.60;99.90
5576;DHT22;2810;50.134;8.626;2022-11-04T17:07:37;11.60;99.90
5576;DHT22;2810;50.134;8.626;2022-11-04T17:10:03;11.50;99.90
5576;DHT22;2810;50.134;8.626;2022-11-04T17:12:29;11.50;99.90
5576;DHT22;2810;50.134;8.626;2022-11-04T17:14:54;11.50;99.90
5576;DHT22;2810;50.134;8.626;2022-11-04T17:17:20;11.60;99.90
5576;DHT22;2810;50.134;8.626;2022-11-04T17:19:45;11.50;99.90
5576;DHT22;2810;50.134;8.626;2022-11-04T17:22:11;11.50;99.90
5576;DHT22;2810;50.134;8.626;2022-11-04T17:24:36;11.50;99.90
5576;DHT22;2810;50.134;8.626;2022-11-04T17:27:02;11.50;99.90
5576;DHT22;2810;50.134;8.626;2022-11-04T17:29:28;11.30;99.90
5576;DHT22;2810;50.134;8.626;2022-11-04T17:31:54;11.30;99.90
5576;DHT22;2810;50.134;8.626;2022-11-04T17:34:20;11.20;99.90
5576;DHT22;2810;50.134;8.626;2022-11-04T17:36:50;11.20;99.90
5576;DHT22;2810;50.134;8.626;2022-11-04T17:39:16;11.10;99.90
5576;DHT22;2810;50.134;8.626;2022-11-04T17:41:41;11.10;99.90
5576;DHT22;2810;50.134;8.626;2022-11-04T17:44:25;11.00;99.90
5576;DHT22;2810;50.134;8.626;2022-11-04T17:46:51;11.10;99.90
5576;DHT22;2810;50.134;8.626;2022-11-04T17:49:17;11.00;99.90
5576;DHT22;2810;50.134;8.626;2022-11-04T17:51:45;11.00;99.90
5576;DHT22;2810;50.134;8.626;2022-11-04T17:54:10;11.00;99.90
5576;DHT22;2810;50.134;8.626;2022-11-04T17:56:37;11.00;99.90
5576;DHT22;2810;50.134;8.626;2022-11-04T17:59:02;10.90;99.90
5576;DHT22;2810;50.134;8.626;2022-11-04T18:01:29;10.90;99.90
5576;DHT22;2810;50.134;8.626;2022-11-04T18:03:55;10.80;99.90
5576;DHT22;2810;50.134;8.626;2022-11-04T18:06:22;10.80;99.90
5576;DHT22;2810;50.134;8.626;2022-11-04T18:08:47;10.80;99.90
5576;DHT22;2810;50.134;8.626;2022-11-04T18:11:13;10.80;99.90
5576;DHT22;2810;50.134;8.626;2022-11-04T18:13:59;10.70;99.90
5576;DHT22;2810;50.134;8.626;2022-11-04T18:16:24;10.80;99.90
5576;DHT22;2810;50.134;8.626;2022-11-04T18:18:50;10.70;99.90
5576;DHT22;2810;50.134;8.626;2022-11-04T18:21:15;10.60;99.90
5576;DHT22;2810;50.134;8.626;2022-11-04T18:23:40;10.60;99.90
5576;DHT22;2810;50.134;8.626;2022-11-04T18:26:09;10.50;99.90
5576;DHT22;2810;50.134;8.626;2022-11-04T18:28:38;10.40;99.90